Terminal Aerodrome Forecast
Issued by NWS Duluth, MN

Home | Current Version | Previous Version | Text Only | Print | Product List | Glossary On
Versions: 1 2 3 4 5 6 7 8 9 10 11 12 13 14 15 16 17 18 19 20 21 22 23 24 25 26 27 28 29 30 31
040
FTUS43 KDLH 061734
TAFDLH
TAF
KDLH 061734Z 0618/0718 21020G30KT P6SM -SHSN OVC022
     FM062100 25015G30KT 5SM -SHSN BR OVC015
     FM070800 27010G20KT 4SM -SHSN OVC015
     FM071200 27020G30KT 3SM -SN OVC015=

USA.gov is the U.S. government's official web portal to all federal, state and local government web resources and services.